Time;durP1;ratioP1;P1;durP2;ratioP2;P2;SDS_P1;SDS_P2;PMS_P1;PMS_P2;Temp;Humidity;BMP_temperature;BMP_pressure;BME280_temperature;BME280_humidity;BME280_pressure;Samples;Min_cycle;Max_cycle;Signal;HPM_P1;HPM_P2
2022/02/28 00:00:20;;;;;;;0.82;0.30;;;23.70;33.10;;;;;;5061906;28;20052;-52
2022/02/28 00:02:48;;;;;;;1.38;0.20;;;23.70;33.20;;;;;;5061362;28;20040;-54
2022/02/28 00:05:16;;;;;;;2.45;0.20;;;23.70;33.20;;;;;;5061802;28;20300;-51
2022/02/28 00:07:45;;;;;;;2.55;0.38;;;23.70;33.30;;;;;;5066017;28;20036;-51
2022/02/28 00:10:13;;;;;;;1.02;0.10;;;23.60;33.30;;;;;;5063670;28;20049;-53
2022/02/28 00:12:39;;;;;;;1.77;0.30;;;23.70;33.30;;;;;;5066026;28;20068;-54
2022/02/28 00:15:08;;;;;;;0.68;0.22;;;23.60;33.30;;;;;;5061149;28;20055;-55
2022/02/28 00:17:35;;;;;;;0.73;0.22;;;23.60;33.20;;;;;;5059468;28;20048;-55
2022/02/28 00:20:04;;;;;;;0.57;0.32;;;23.60;33.30;;;;;;5062748;28;20056;-53
2022/02/28 00:22:32;;;;;;;2.38;0.20;;;23.70;33.30;;;;;;5063205;28;20791;-51
2022/02/28 00:25:01;;;;;;;1.33;0.20;;;23.60;33.30;;;;;;5068477;28;20032;-52
2022/02/28 00:27:28;;;;;;;3.10;0.30;;;23.70;32.90;;;;;;5067431;28;20041;-52
2022/02/28 00:29:55;;;;;;;1.65;0.55;;;23.70;33.40;;;;;;5059336;28;20037;-53
2022/02/28 00:32:23;;;;;;;0.52;0.20;;;23.70;33.30;;;;;;5061230;28;20132;-52
2022/02/28 00:34:51;;;;;;;0.98;0.40;;;23.70;33.30;;;;;;5048728;28;20037;-55
2022/02/28 00:37:18;;;;;;;0.60;0.20;;;23.70;33.30;;;;;;5064785;28;20037;-54
2022/02/28 00:39:46;;;;;;;4.88;0.70;;;23.70;33.30;;;;;;5044737;28;20045;-54
2022/02/28 00:42:14;;;;;;;0.30;0.10;;;23.70;33.20;;;;;;5060553;28;20048;-50
2022/02/28 00:44:42;;;;;;;1.00;0.20;;;23.70;33.30;;;;;;5068671;28;20068;-53
2022/02/28 00:47:09;;;;;;;0.40;0.28;;;23.70;33.30;;;;;;5045334;28;20422;-51
2022/02/28 00:49:36;;;;;;;1.30;0.52;;;23.70;33.20;;;;;;5060729;28;20032;-53
2022/02/28 00:52:05;;;;;;;1.75;0.40;;;23.70;33.20;;;;;;5062500;28;20580;-55
2022/02/28 00:54:32;;;;;;;0.73;0.10;;;23.70;33.20;;;;;;5064574;28;20059;-54
2022/02/28 00:56:59;;;;;;;0.82;0.13;;;23.70;33.20;;;;;;5062832;28;20533;-53
2022/02/28 00:59:27;;;;;;;0.85;0.20;;;23.70;33.20;;;;;;5045290;28;20036;-55
2022/02/28 01:01:54;;;;;;;1.65;0.10;;;23.70;33.10;;;;;;5039958;28;20049;-52
2022/02/28 01:04:22;;;;;;;2.10;0.28;;;23.70;33.10;;;;;;5063589;28;20054;-53
2022/02/28 01:06:49;;;;;;;0.30;0.30;;;23.60;33.00;;;;;;5047345;28;20562;-54
2022/02/28 01:09:16;;;;;;;0.75;0.32;;;23.60;33.00;;;;;;5064123;28;20558;-54
2022/02/28 01:11:43;;;;;;;0.47;0.22;;;23.60;33.80;;;;;;5048988;28;20045;-54
2022/02/28 01:14:11;;;;;;;0.85;0.20;;;23.60;33.70;;;;;;5048585;28;20208;-55
2022/02/28 01:16:40;;;;;;;0.38;0.30;;;23.60;33.00;;;;;;5065420;28;20144;-53
2022/02/28 01:19:07;;;;;;;0.93;0.30;;;23.60;33.00;;;;;;5046641;28;20476;-55
2022/02/28 01:21:34;;;;;;;1.23;0.32;;;23.60;33.10;;;;;;5046004;28;20053;-53
2022/02/28 01:24:01;;;;;;;0.85;0.30;;;23.60;33.10;;;;;;5062649;28;20044;-53
2022/02/28 01:26:29;;;;;;;0.55;0.20;;;23.60;33.20;;;;;;5048886;28;20044;-55
2022/02/28 01:28:56;;;;;;;0.82;0.30;;;23.60;33.20;;;;;;5059306;28;20132;-55
2022/02/28 01:31:23;;;;;;;1.30;0.40;;;23.60;33.00;;;;;;5062448;28;20076;-55
2022/02/28 01:33:51;;;;;;;0.20;0.10;;;23.50;33.00;;;;;;5043718;28;20048;-55
2022/02/28 01:36:18;;;;;;;0.52;0.20;;;23.60;33.00;;;;;;5044049;28;20050;-58
2022/02/28 01:38:45;;;;;;;0.32;0.25;;;23.50;33.00;;;;;;5063529;28;20075;-55
2022/02/28 01:41:12;;;;;;;0.68;0.10;;;23.50;33.00;;;;;;5060291;28;20511;-55
2022/02/28 01:43:40;;;;;;;0.63;0.30;;;23.50;33.00;;;;;;5059973;28;20070;-56
2022/02/28 01:46:07;;;;;;;0.80;0.10;;;23.50;33.00;;;;;;5065786;28;20048;-56
2022/02/28 01:48:34;;;;;;;0.50;0.20;;;23.50;33.00;;;;;;5044342;28;20537;-54
2022/02/28 01:51:03;;;;;;;0.93;0.20;;;23.50;33.00;;;;;;5043037;28;20104;-56
2022/02/28 01:53:30;;;;;;;0.20;0.20;;;23.50;33.00;;;;;;5041213;28;20071;-56
2022/02/28 01:55:57;;;;;;;1.27;0.30;;;23.40;33.00;;;;;;5045080;28;20050;-56
2022/02/28 01:58:24;;;;;;;0.20;0.20;;;23.40;33.00;;;;;;5044377;28;20455;-56
2022/02/28 02:00:51;;;;;;;1.90;0.10;;;23.40;33.00;;;;;;5057510;28;20543;-55
2022/02/28 02:03:18;;;;;;;1.25;0.20;;;23.40;33.00;;;;;;5038736;28;20051;-57
2022/02/28 02:05:46;;;;;;;0.85;0.63;;;23.40;33.00;;;;;;5041369;28;20040;-55
2022/02/28 02:08:15;;;;;;;4.13;0.20;;;23.40;33.00;;;;;;5043116;28;20513;-54
2022/02/28 02:10:44;;;;;;;0.68;0.50;;;23.30;33.00;;;;;;5038310;28;20127;-56
2022/02/28 02:13:12;;;;;;;0.20;0.10;;;23.30;33.00;;;;;;5040263;28;20395;-55
2022/02/28 02:15:41;;;;;;;0.40;0.25;;;23.30;33.00;;;;;;5042096;28;20123;-53
2022/02/28 02:18:08;;;;;;;0.90;0.15;;;23.30;33.00;;;;;;5040687;28;20041;-55
2022/02/28 02:20:38;;;;;;;1.00;0.32;;;23.30;33.00;;;;;;5040222;28;20052;-56
2022/02/28 02:23:08;;;;;;;1.15;0.47;;;23.30;32.90;;;;;;5036652;28;20470;-55
2022/02/28 02:25:37;;;;;;;0.30;0.10;;;23.30;32.90;;;;;;5044229;28;20057;-55
2022/02/28 02:28:06;;;;;;;0.28;0.10;;;23.30;33.00;;;;;;5040133;28;20506;-56
2022/02/28 02:30:34;;;;;;;1.48;0.30;;;23.30;33.00;;;;;;5037249;28;20053;-57
2022/02/28 02:33:03;;;;;;;0.20;0.10;;;23.30;33.00;;;;;;5037434;28;20045;-56
2022/02/28 02:35:31;;;;;;;1.02;0.50;;;23.30;33.00;;;;;;5040313;28;20128;-52
2022/02/28 02:38:00;;;;;;;0.63;0.30;;;23.30;33.00;;;;;;5040325;28;20335;-59
2022/02/28 02:40:27;;;;;;;1.95;0.10;;;23.30;33.10;;;;;;5042144;28;20041;-51
2022/02/28 02:42:54;;;;;;;1.10;1.00;;;23.20;33.10;;;;;;5037103;28;20548;-53
2022/02/28 02:45:21;;;;;;;0.65;0.10;;;23.20;33.10;;;;;;5041365;28;20286;-54
2022/02/28 02:47:48;;;;;;;0.20;0.10;;;23.20;33.10;;;;;;5039829;28;20037;-51
2022/02/28 02:50:17;;;;;;;1.88;0.10;;;23.20;33.10;;;;;;5041321;28;20041;-52
2022/02/28 02:52:45;;;;;;;0.20;0.20;;;23.20;33.20;;;;;;5021837;28;20540;-54
2022/02/28 02:55:16;;;;;;;0.65;0.63;;;23.20;33.10;;;;;;5044463;28;20076;-54
2022/02/28 02:57:44;;;;;;;2.15;0.10;;;23.20;33.10;;;;;;5039378;28;20044;-56
2022/02/28 03:00:13;;;;;;;1.65;0.30;;;23.20;33.10;;;;;;5040529;28;20067;-57
2022/02/28 03:03:04;;;;;;;0.20;0.20;;;23.20;33.20;;;;;;5042415;28;20053;-56
2022/02/28 03:05:32;;;;;;;0.40;0.10;;;23.20;33.10;;;;;;5043055;28;20864;-55
2022/02/28 03:07:59;;;;;;;0.20;0.20;;;23.20;33.20;;;;;;5043149;28;20080;-54
2022/02/28 03:10:29;;;;;;;0.65;0.20;;;23.20;33.20;;;;;;5045857;28;20139;-55
2022/02/28 03:12:58;;;;;;;0.50;0.20;;;23.20;33.20;;;;;;5044398;28;20132;-56
2022/02/28 03:15:25;;;;;;;0.22;0.10;;;23.10;33.10;;;;;;5042329;28;20076;-57
2022/02/28 03:17:53;;;;;;;0.93;0.13;;;23.10;33.10;;;;;;5042989;28;20563;-53
2022/02/28 03:20:22;;;;;;;0.30;0.10;;;23.20;33.10;;;;;;5047842;28;20176;-58
2022/02/28 03:22:49;;;;;;;0.68;0.10;;;23.10;33.00;;;;;;5043447;28;20054;-53
2022/02/28 03:25:18;;;;;;;0.80;0.08;;;23.20;33.00;;;;;;5051616;28;20041;-53
2022/02/28 03:27:54;;;;;;;1.65;0.13;;;23.10;33.00;;;;;;5043188;28;20052;-57
2022/02/28 03:30:21;;;;;;;0.75;0.10;;;23.10;33.00;;;;;;5040473;28;20052;-56
2022/02/28 03:32:48;;;;;;;1.75;0.10;;;23.10;32.90;;;;;;5040797;28;20955;-55
2022/02/28 03:35:15;;;;;;;1.13;0.45;;;23.10;32.90;;;;;;5041781;28;20056;-54
2022/02/28 03:37:43;;;;;;;0.47;0.20;;;23.10;32.90;;;;;;5043144;28;20139;-54
2022/02/28 03:40:12;;;;;;;0.38;0.30;;;23.10;32.90;;;;;;5046996;28;20040;-55
2022/02/28 03:42:39;;;;;;;0.35;0.20;;;23.10;32.90;;;;;;5042549;28;20044;-56
2022/02/28 03:45:09;;;;;;;1.67;0.20;;;23.10;32.80;;;;;;5042217;28;20527;-56
2022/02/28 03:47:38;;;;;;;0.40;0.20;;;23.10;32.80;;;;;;5042827;28;20052;-55
2022/02/28 03:50:24;;;;;;;0.45;0.20;;;23.10;32.80;;;;;;5044345;28;20040;-53
2022/02/28 03:52:53;;;;;;;0.45;0.20;;;23.10;32.80;;;;;;5059147;28;20045;-54
2022/02/28 03:55:24;;;;;;;0.10;0.10;;;23.00;32.80;;;;;;5044187;28;20098;-53
2022/02/28 03:57:52;;;;;;;0.82;0.20;;;23.10;33.50;;;;;;5043252;28;20124;-56
2022/02/28 04:00:21;;;;;;;1.85;0.40;;;23.00;32.80;;;;;;5042797;28;20120;-53
2022/02/28 04:02:48;;;;;;;1.90;0.20;;;23.10;32.90;;;;;;5044845;28;20036;-52
2022/02/28 04:05:16;;;;;;;0.20;0.20;;;23.00;32.90;;;;;;5044592;28;20048;-55
2022/02/28 04:07:44;;;;;;;1.05;0.20;;;23.00;32.90;;;;;;5049331;28;20051;-54
2022/02/28 04:10:12;;;;;;;0.85;0.47;;;23.00;32.90;;;;;;5032645;28;20126;-51
2022/02/28 04:12:40;;;;;;;0.75;0.20;;;23.00;32.90;;;;;;5042624;28;20508;-54
2022/02/28 04:15:08;;;;;;;0.73;0.15;;;23.00;32.90;;;;;;5044753;28;20133;-55
2022/02/28 04:17:37;;;;;;;1.10;0.35;;;23.00;32.90;;;;;;5044771;28;20051;-54
2022/02/28 04:20:22;;;;;;;1.05;0.20;;;23.00;32.80;;;;;;5046067;28;20047;-55
2022/02/28 04:22:51;;;;;;;0.30;0.10;;;22.90;32.90;;;;;;5041429;28;20049;-56
2022/02/28 04:25:18;;;;;;;0.38;0.10;;;22.90;32.80;;;;;;5046316;28;20047;-59
2022/02/28 04:27:45;;;;;;;0.45;0.13;;;22.90;32.90;;;;;;5041263;28;20087;-57
2022/02/28 04:30:15;;;;;;;0.20;0.20;;;22.90;32.90;;;;;;5046284;28;20044;-54
2022/02/28 04:32:44;;;;;;;1.02;0.10;;;22.90;32.90;;;;;;5043087;28;20087;-53
2022/02/28 04:35:11;;;;;;;0.85;0.20;;;22.90;32.90;;;;;;5064300;28;20039;-56
2022/02/28 04:37:41;;;;;;;0.20;0.10;;;22.90;32.90;;;;;;5043552;28;20406;-54
2022/02/28 04:40:12;;;;;;;1.85;0.50;;;22.90;32.90;;;;;;5027790;28;20058;-55
2022/02/28 04:42:41;;;;;;;0.60;0.10;;;22.90;32.90;;;;;;5039959;28;20036;-53
2022/02/28 04:45:09;;;;;;;0.57;0.28;;;22.90;32.90;;;;;;5044588;28;20037;-54
2022/02/28 04:47:36;;;;;;;2.58;0.50;;;22.90;33.00;;;;;;5044543;28;20448;-52
2022/02/28 04:50:11;;;;;;;0.30;0.20;;;22.90;33.00;;;;;;5062800;28;20710;-54
2022/02/28 04:52:39;;;;;;;0.20;0.20;;;22.80;33.00;;;;;;5047593;28;20113;-51
2022/02/28 04:55:07;;;;;;;0.30;0.13;;;22.80;33.00;;;;;;5062062;28;20040;-52
2022/02/28 04:57:37;;;;;;;0.82;0.20;;;22.80;33.00;;;;;;5043653;28;20036;-56
2022/02/28 05:00:07;;;;;;;0.50;0.20;;;22.80;33.10;;;;;;5041986;28;20052;-54
2022/02/28 05:02:35;;;;;;;0.15;0.15;;;22.80;33.00;;;;;;5038149;28;20706;-53
2022/02/28 05:05:25;;;;;;;2.05;0.20;;;22.80;33.10;;;;;;5044286;28;20056;-52
2022/02/28 05:07:53;;;;;;;0.98;0.10;;;22.70;32.90;;;;;;5048913;28;20094;-51
2022/02/28 05:10:21;;;;;;;0.30;0.20;;;22.80;33.10;;;;;;5046266;28;20840;-51
2022/02/28 05:12:49;;;;;;;1.55;0.20;;;22.70;33.00;;;;;;5041898;28;20047;-56
2022/02/28 05:15:16;;;;;;;1.10;0.30;;;22.80;33.20;;;;;;5041476;28;20040;-54
2022/02/28 05:17:43;;;;;;;0.77;0.10;;;22.70;33.00;;;;;;5042930;28;20043;-56
2022/02/28 05:20:12;;;;;;;0.40;0.10;;;22.70;33.00;;;;;;5046274;28;20044;-51
2022/02/28 05:22:41;;;;;;;0.82;0.13;;;22.70;33.00;;;;;;5040703;28;20064;-53
2022/02/28 05:25:09;;;;;;;2.15;0.50;;;22.70;33.00;;;;;;5050874;28;20052;-55
2022/02/28 05:27:37;;;;;;;0.40;0.30;;;22.70;33.10;;;;;;5042516;28;20044;-52
2022/02/28 05:30:05;;;;;;;0.20;0.10;;;22.60;33.00;;;;;;5044956;28;20041;-53
2022/02/28 05:32:33;;;;;;;3.95;0.30;;;22.70;33.00;;;;;;5042162;28;20052;-52
2022/02/28 05:35:00;;;;;;;0.38;0.20;;;22.60;33.00;;;;;;5059742;28;20502;-56
2022/02/28 05:37:56;;;;;;;0.70;0.28;;;22.60;33.00;;;;;;5062534;28;20131;-54
2022/02/28 05:40:24;;;;;;;0.15;0.10;;;22.60;33.10;;;;;;5044665;28;20135;-56
2022/02/28 05:42:51;;;;;;;0.25;0.10;;;22.60;33.00;;;;;;5045950;28;20473;-55
2022/02/28 05:45:19;;;;;;;0.32;0.10;;;22.60;32.90;;;;;;5063051;28;20048;-53
2022/02/28 05:47:54;;;;;;;1.23;0.20;;;22.60;33.00;;;;;;5039498;28;20036;-54
2022/02/28 05:50:21;;;;;;;0.30;0.20;;;22.60;33.00;;;;;;5062027;28;20132;-53
2022/02/28 05:52:49;;;;;;;0.43;0.10;;;22.60;33.00;;;;;;5057546;28;20040;-55
2022/02/28 05:55:17;;;;;;;1.00;0.30;;;22.60;33.00;;;;;;5062573;28;20059;-56
2022/02/28 05:57:44;;;;;;;0.40;0.20;;;22.60;33.00;;;;;;5043182;28;20054;-52
2022/02/28 06:00:12;;;;;;;2.05;0.10;;;22.50;32.90;;;;;;5060940;28;20758;-51
2022/02/28 06:02:44;;;;;;;0.22;0.13;;;22.50;33.00;;;;;;5054931;28;20605;-51
2022/02/28 06:05:11;;;;;;;0.35;0.20;;;22.60;33.10;;;;;;5054408;28;20065;-54
2022/02/28 06:07:38;;;;;;;0.73;0.20;;;22.50;33.10;;;;;;5059125;28;20044;-55
2022/02/28 06:10:05;;;;;;;1.00;0.20;;;22.50;33.00;;;;;;5062345;28;20136;-55
2022/02/28 06:12:34;;;;;;;2.17;0.47;;;22.50;33.10;;;;;;5056316;28;20465;-56
2022/02/28 06:15:02;;;;;;;0.60;0.10;;;22.50;33.00;;;;;;5054195;28;20513;-52
2022/02/28 06:17:29;;;;;;;0.40;0.20;;;22.50;33.10;;;;;;5060024;28;20055;-57
2022/02/28 06:19:56;;;;;;;1.35;0.30;;;22.50;33.10;;;;;;5056127;28;20048;-52
2022/02/28 06:22:23;;;;;;;0.40;0.28;;;22.50;33.10;;;;;;5054177;28;20540;-53
2022/02/28 06:24:51;;;;;;;6.43;0.25;;;22.50;33.10;;;;;;5039104;28;20082;-55
2022/02/28 06:27:19;;;;;;;0.65;0.20;;;22.50;33.10;;;;;;5043344;28;20041;-55
2022/02/28 06:29:47;;;;;;;0.75;0.10;;;22.50;33.00;;;;;;5057858;28;20083;-52
2022/02/28 06:32:14;;;;;;;1.10;0.95;;;22.50;33.10;;;;;;5060859;28;20493;-57
2022/02/28 06:34:41;;;;;;;0.13;0.13;;;22.50;33.10;;;;;;5059633;28;20068;-53
2022/02/28 06:37:09;;;;;;;1.75;0.20;;;22.50;33.10;;;;;;5066141;28;20413;-50
2022/02/28 06:39:37;;;;;;;3.22;0.28;;;22.50;33.10;;;;;;5063309;28;20036;-54
2022/02/28 06:42:04;;;;;;;3.65;0.30;;;22.50;33.30;;;;;;5061540;28;20098;-52
2022/02/28 06:44:32;;;;;;;2.88;0.13;;;22.50;33.20;;;;;;5067687;28;20098;-52
2022/02/28 06:47:01;;;;;;;7.57;0.40;;;22.50;33.20;;;;;;5060591;28;20755;-54
2022/02/28 06:49:29;;;;;;;0.45;0.30;;;22.50;33.20;;;;;;5064408;28;20516;-55
2022/02/28 06:51:56;;;;;;;0.17;0.10;;;22.50;33.20;;;;;;5059121;28;20050;-54
2022/02/28 06:54:23;;;;;;;2.95;0.30;;;22.50;33.30;;;;;;5061148;28;20778;-46
2022/02/28 06:56:50;;;;;;;5.25;0.45;;;22.50;33.80;;;;;;5064131;28;20420;-53
2022/02/28 06:59:17;;;;;;;3.60;0.20;;;22.50;34.00;;;;;;5063091;28;20122;-52
2022/02/28 07:01:44;;;;;;;1.67;0.10;;;22.50;34.00;;;;;;5039444;28;20052;-49
2022/02/28 07:04:33;;;;;;;5.53;0.40;;;22.60;34.00;;;;;;5040030;28;20079;-49
2022/02/28 07:07:00;;;;;;;0.95;0.20;;;22.70;34.00;;;;;;5045376;28;20258;-45
2022/02/28 07:09:27;;;;;;;2.33;0.57;;;22.80;33.80;;;;;;5044852;28;20155;-47
2022/02/28 07:11:55;;;;;;;2.53;0.20;;;22.80;33.70;;;;;;5040283;28;20041;-46
2022/02/28 07:14:22;;;;;;;1.55;0.20;;;22.90;33.60;;;;;;5042598;28;20037;-50
2022/02/28 07:16:49;;;;;;;4.53;0.47;;;23.00;33.50;;;;;;5040174;28;20049;-48
2022/02/28 07:19:16;;;;;;;7.40;0.50;;;23.00;33.40;;;;;;5044482;28;20123;-47
2022/02/28 07:21:45;;;;;;;0.63;0.13;;;23.10;33.40;;;;;;5041700;28;20148;-48
2022/02/28 07:24:12;;;;;;;0.50;0.10;;;23.10;33.30;;;;;;5041889;28;20049;-48
2022/02/28 07:26:39;;;;;;;2.03;1.00;;;23.20;33.30;;;;;;5045955;28;20489;-47
2022/02/28 07:29:07;;;;;;;0.88;0.88;;;23.30;33.30;;;;;;5040691;28;20065;-49
2022/02/28 07:31:34;;;;;;;1.10;0.20;;;23.30;33.20;;;;;;5045904;28;20056;-46
2022/02/28 07:34:01;;;;;;;2.92;0.20;;;23.30;32.90;;;;;;5041742;28;20870;-50
2022/02/28 07:36:29;;;;;;;0.90;0.20;;;23.40;32.90;;;;;;5044392;28;20056;-49
2022/02/28 07:38:57;;;;;;;1.65;1.23;;;23.40;32.80;;;;;;5043701;28;20102;-44
2022/02/28 07:41:24;;;;;;;0.85;0.85;;;23.50;32.90;;;;;;5038119;28;20044;-45
2022/02/28 07:43:52;;;;;;;0.75;0.43;;;23.50;33.00;;;;;;5040317;28;20464;-47
2022/02/28 07:46:19;;;;;;;1.35;0.43;;;23.50;32.70;;;;;;5046021;28;20037;-43
2022/02/28 07:48:46;;;;;;;1.65;0.20;;;23.50;32.70;;;;;;5042586;28;20738;-51
2022/02/28 07:51:13;;;;;;;2.00;0.40;;;23.60;32.70;;;;;;5040907;28;20049;-44
2022/02/28 07:53:41;;;;;;;1.70;0.52;;;23.60;32.70;;;;;;5041080;28;20041;-46
2022/02/28 07:56:09;;;;;;;0.43;0.43;;;23.60;32.60;;;;;;5046623;28;20149;-46
2022/02/28 07:58:37;;;;;;;2.85;0.30;;;23.60;32.50;;;;;;5041289;28;20195;-46
2022/02/28 08:01:04;;;;;;;2.08;0.30;;;23.60;32.40;;;;;;5048478;28;20149;-53
2022/02/28 08:03:31;;;;;;;0.82;0.40;;;23.70;32.50;;;;;;5057348;28;20051;-52
2022/02/28 08:05:58;;;;;;;0.52;0.30;;;23.70;32.30;;;;;;5058868;28;20045;-55
2022/02/28 08:08:27;;;;;;;1.08;0.10;;;23.70;32.90;;;;;;5059898;28;20547;-52
2022/02/28 08:10:54;;;;;;;2.35;0.45;;;23.70;32.30;;;;;;5045591;28;20125;-54
2022/02/28 08:13:23;;;;;;;1.73;0.35;;;23.80;32.30;;;;;;5062381;28;20127;-52
2022/02/28 08:15:50;;;;;;;0.38;0.38;;;23.80;32.10;;;;;;5058359;28;20099;-58
2022/02/28 08:18:17;;;;;;;3.90;0.30;;;23.90;32.20;;;;;;5062096;28;20087;-59
2022/02/28 08:20:44;;;;;;;0.88;0.30;;;24.00;32.20;;;;;;5061166;28;20593;-55
2022/02/28 08:23:11;;;;;;;3.78;0.85;;;24.10;32.00;;;;;;5056071;28;20060;-54
2022/02/28 08:25:39;;;;;;;0.70;0.32;;;24.20;31.70;;;;;;5061390;28;20045;-54
2022/02/28 08:28:06;;;;;;;2.47;0.80;;;24.30;31.50;;;;;;5061837;28;20205;-54
2022/02/28 08:30:35;;;;;;;0.50;0.30;;;24.30;31.30;;;;;;5057262;28;20139;-58
2022/02/28 08:33:02;;;;;;;0.75;0.20;;;24.40;31.20;;;;;;5064011;28;20052;-60
2022/02/28 08:35:30;;;;;;;2.35;0.60;;;24.40;31.30;;;;;;5066308;28;20132;-56
2022/02/28 08:37:58;;;;;;;1.08;0.40;;;24.50;31.20;;;;;;5061335;28;20037;-57
2022/02/28 08:40:26;;;;;;;2.83;0.38;;;24.50;31.00;;;;;;5062870;28;20131;-54
2022/02/28 08:42:53;;;;;;;4.57;0.60;;;24.60;30.90;;;;;;5058594;28;20113;-56
2022/02/28 08:45:20;;;;;;;1.90;0.70;;;24.70;30.70;;;;;;5056178;28;20052;-55
2022/02/28 08:47:49;;;;;;;1.38;0.30;;;24.70;30.50;;;;;;5061071;28;20520;-56
2022/02/28 08:50:16;;;;;;;5.40;1.08;;;24.80;30.40;;;;;;5061425;28;20036;-56
2022/02/28 08:52:44;;;;;;;1.45;0.20;;;24.80;30.30;;;;;;5058539;28;20518;-54
2022/02/28 08:55:11;;;;;;;5.60;1.48;;;24.80;30.20;;;;;;5069846;28;20065;-55
2022/02/28 08:57:38;;;;;;;2.70;0.45;;;24.70;30.10;;;;;;5060480;28;20059;-62
2022/02/28 09:00:08;;;;;;;2.05;0.52;;;24.70;30.20;;;;;;5043851;28;20056;-61
2022/02/28 09:02:37;;;;;;;1.65;0.30;;;24.70;30.20;;;;;;5059642;28;20063;-59
2022/02/28 09:05:06;;;;;;;2.78;0.82;;;24.60;30.30;;;;;;5062262;28;20951;-62
2022/02/28 09:07:34;;;;;;;7.22;0.30;;;24.60;30.20;;;;;;5063924;28;20045;-62
2022/02/28 09:10:01;;;;;;;1.15;0.40;;;24.60;30.30;;;;;;5056745;28;20148;-59
2022/02/28 09:12:28;;;;;;;3.42;0.30;;;24.60;30.40;;;;;;5036373;28;20053;-58
2022/02/28 09:14:56;;;;;;;9.40;0.85;;;24.60;30.40;;;;;;5057035;28;20356;-60
2022/02/28 09:17:24;;;;;;;2.47;1.30;;;24.60;30.50;;;;;;5060116;28;20072;-57
2022/02/28 09:19:51;;;;;;;1.08;0.40;;;24.60;30.50;;;;;;5067143;28;20048;-59
2022/02/28 09:22:20;;;;;;;2.15;0.40;;;24.60;30.50;;;;;;5061584;28;20075;-57
2022/02/28 09:24:48;;;;;;;1.40;0.65;;;24.60;30.50;;;;;;5063030;28;20055;-57
2022/02/28 09:27:17;;;;;;;2.72;0.93;;;24.60;30.40;;;;;;5058719;28;20044;-54
2022/02/28 09:29:44;;;;;;;1.10;0.50;;;24.60;30.30;;;;;;5055116;28;20032;-53
2022/02/28 09:32:12;;;;;;;1.58;0.35;;;24.60;30.40;;;;;;5057185;28;20071;-49
2022/02/28 09:34:39;;;;;;;2.15;0.60;;;24.60;30.40;;;;;;5061458;28;20059;-55
2022/02/28 09:37:06;;;;;;;1.90;0.50;;;24.60;30.40;;;;;;5062563;28;20588;-46
2022/02/28 09:39:35;;;;;;;3.00;0.57;;;24.60;30.40;;;;;;5059735;28;20140;-51
2022/02/28 09:42:21;;;;;;;2.25;0.30;;;24.50;30.50;;;;;;5057963;28;20630;-65
2022/02/28 09:45:09;;;;;;;6.38;0.55;;;24.50;30.60;;;;;;5056151;28;20048;-60
2022/02/28 09:47:56;;;;;;;2.10;1.33;;;24.40;30.50;;;;;;5060897;28;20394;-61
2022/02/28 09:50:43;;;;;;;0.75;0.20;;;24.40;30.60;;;;;;5061646;28;20115;-57
2022/02/28 09:53:42;;;;;;;4.22;0.60;;;24.40;30.50;;;;;;5016268;28;20059;-67
2022/02/28 09:56:35;;;;;;;1.27;0.98;;;24.30;30.40;;;;;;5004897;28;20052;-56
2022/02/28 09:59:21;;;;;;;1.40;0.22;;;24.30;30.50;;;;;;5019647;28;20600;-59
2022/02/28 10:01:49;;;;;;;1.30;0.40;;;24.30;30.50;;;;;;5005971;28;20049;-52
2022/02/28 10:04:17;;;;;;;6.20;0.30;;;24.30;30.60;;;;;;5016790;28;20089;-62
2022/02/28 10:06:46;;;;;;;1.65;0.70;;;24.20;30.60;;;;;;5023621;28;20107;-56
2022/02/28 10:09:18;;;;;;;0.98;0.50;;;24.20;30.70;;;;;;5021248;28;20060;-60
2022/02/28 10:11:51;;;;;;;1.17;0.50;;;24.20;30.70;;;;;;5021989;28;20065;-65
2022/02/28 10:14:20;;;;;;;4.95;0.85;;;24.20;30.90;;;;;;5022039;28;20072;-64
2022/02/28 10:16:50;;;;;;;1.92;0.75;;;24.20;31.00;;;;;;5023352;28;20049;-60
2022/02/28 10:19:24;;;;;;;0.40;0.22;;;24.20;31.10;;;;;;5022840;28;20045;-48
2022/02/28 10:21:53;;;;;;;0.95;0.20;;;24.20;31.20;;;;;;5022316;28;20541;-55
2022/02/28 10:24:22;;;;;;;2.35;0.73;;;24.10;31.10;;;;;;5020199;28;20074;-44
2022/02/28 10:27:27;;;;;;;2.03;0.50;;;24.20;31.10;;;;;;5031637;28;20051;-61
2022/02/28 10:30:27;;;;;;;1.65;0.43;;;24.10;31.70;;;;;;5056421;28;20592;-66
2022/02/28 10:33:35;;;;;;;2.85;0.77;;;24.20;31.20;;;;;;5061518;28;20052;-66
2022/02/28 10:36:28;;;;;;;1.15;0.52;;;24.10;31.30;;;;;;5064130;28;20548;-69
2022/02/28 10:39:00;;;;;;;0.80;0.52;;;24.10;31.30;;;;;;5046560;28;20511;-68
2022/02/28 10:41:30;;;;;;;1.45;0.35;;;24.10;31.30;;;;;;5046887;28;20036;-72
2022/02/28 10:44:00;;;;;;;0.82;0.20;;;24.20;31.30;;;;;;5062599;28;20047;-63
2022/02/28 10:46:30;;;;;;;1.73;0.50;;;24.20;31.40;;;;;;5065664;28;20049;-64
2022/02/28 10:49:02;;;;;;;0.80;0.45;;;24.20;31.30;;;;;;5064557;28;20037;-64
2022/02/28 10:51:31;;;;;;;0.55;0.30;;;24.30;31.40;;;;;;5061573;28;20048;-66
2022/02/28 10:54:10;;;;;;;1.88;0.50;;;24.30;31.30;;;;;;5060948;28;20667;-66
2022/02/28 10:56:47;;;;;;;1.48;0.50;;;24.40;31.30;;;;;;5066854;28;20584;-62
2022/02/28 10:59:15;;;;;;;0.77;0.77;;;24.40;31.40;;;;;;5039233;28;20048;-65
2022/02/28 11:01:43;;;;;;;0.60;0.40;;;24.40;31.40;;;;;;5043851;28;20060;-65
2022/02/28 11:04:11;;;;;;;1.98;0.30;;;24.50;31.40;;;;;;5064825;28;20055;-48
2022/02/28 11:06:39;;;;;;;1.17;1.08;;;24.50;31.40;;;;;;5064140;28;20041;-60
2022/02/28 11:09:06;;;;;;;2.25;0.30;;;24.60;31.30;;;;;;5062077;28;20048;-48
2022/02/28 11:11:34;;;;;;;1.20;0.85;;;24.60;31.30;;;;;;5062584;28;20133;-56
2022/02/28 11:14:01;;;;;;;5.45;0.68;;;24.70;31.10;;;;;;5061123;28;20842;-57
2022/02/28 11:16:33;;;;;;;1.15;0.40;;;24.70;31.00;;;;;;5064782;28;20052;-59
2022/02/28 11:19:04;;;;;;;2.00;0.40;;;24.80;31.00;;;;;;5064683;28;20036;-53
2022/02/28 11:21:34;;;;;;;1.63;0.40;;;24.80;31.00;;;;;;5057539;28;20056;-60
2022/02/28 11:24:02;;;;;;;1.88;0.68;;;24.90;31.10;;;;;;5058727;28;20041;-46
2022/02/28 11:26:30;;;;;;;12.80;0.70;;;24.90;31.50;;;;;;5067401;28;20040;-57
2022/02/28 11:28:58;;;;;;;7.20;1.25;;;24.90;31.50;;;;;;5068668;28;20045;-54
2022/02/28 11:31:26;;;;;;;32.33;2.58;;;24.90;31.50;;;;;;5064008;28;20573;-53
2022/02/28 11:34:03;;;;;;;32.50;2.88;;;24.90;31.50;;;;;;5062375;28;20075;-59
2022/02/28 11:36:46;;;;;;;61.90;6.47;;;25.00;31.50;;;;;;5060158;28;20056;-57
2022/02/28 11:39:13;;;;;;;52.67;4.15;;;25.00;31.50;;;;;;5059013;28;20044;-57
2022/02/28 11:41:41;;;;;;;82.15;7.53;;;25.00;31.60;;;;;;5059142;28;20036;-53
2022/02/28 11:44:09;;;;;;;62.10;5.22;;;25.00;31.60;;;;;;5061141;28;20167;-53
2022/02/28 11:46:40;;;;;;;60.25;6.10;;;25.10;31.60;;;;;;5060375;28;20119;-54
2022/02/28 11:49:10;;;;;;;63.30;3.47;;;25.10;31.60;;;;;;5062303;28;20442;-54
2022/02/28 11:51:39;;;;;;;45.85;4.47;;;25.10;31.50;;;;;;5060375;28;20045;-58
2022/02/28 11:54:08;;;;;;;46.58;5.43;;;25.20;31.50;;;;;;5061268;28;20055;-60
2022/02/28 11:56:55;;;;;;;45.53;4.53;;;25.20;31.50;;;;;;5023939;28;76781;-58
2022/02/28 11:59:24;;;;;;;35.22;5.15;;;25.30;31.50;;;;;;5047822;28;20122;-55
2022/02/28 12:01:58;;;;;;;37.35;4.32;;;25.30;31.50;;;;;;5041659;28;20162;-62
2022/02/28 12:04:36;;;;;;;27.75;3.70;;;25.50;31.30;;;;;;5043472;28;20041;-53
2022/02/28 12:07:05;;;;;;;31.10;3.20;;;25.60;31.30;;;;;;5057262;28;20626;-56
2022/02/28 12:09:41;;;;;;;35.05;3.63;;;25.50;31.20;;;;;;5040562;28;20045;-61
2022/02/28 12:12:27;;;;;;;22.17;4.20;;;25.60;31.20;;;;;;5040882;28;20056;-58
2022/02/28 12:15:22;;;;;;;39.33;4.47;;;25.70;31.20;;;;;;5035634;28;20107;-55
2022/02/28 12:18:06;;;;;;;25.85;5.28;;;25.70;31.10;;;;;;5043325;28;20140;-51
2022/02/28 12:20:44;;;;;;;24.58;3.13;;;25.70;31.20;;;;;;5045740;28;20045;-50
2022/02/28 12:23:16;;;;;;;23.35;3.20;;;25.70;31.10;;;;;;5039500;28;20041;-50
2022/02/28 12:25:46;;;;;;;24.15;4.43;;;25.70;31.20;;;;;;5042178;28;20064;-53
2022/02/28 12:28:16;;;;;;;16.55;3.42;;;25.70;31.10;;;;;;5041927;28;20051;-54
2022/02/28 12:30:46;;;;;;;17.77;2.78;;;25.80;31.20;;;;;;5040011;28;20041;-46
2022/02/28 12:33:16;;;;;;;22.02;3.00;;;25.80;31.10;;;;;;5040506;28;20451;-46
2022/02/28 12:35:56;;;;;;;12.38;2.25;;;25.90;31.20;;;;;;5041755;28;20558;-48
2022/02/28 12:38:26;;;;;;;13.93;3.47;;;26.00;31.10;;;;;;5048212;28;20520;-48
2022/02/28 12:40:55;;;;;;;18.65;3.20;;;26.00;31.00;;;;;;5041954;28;20044;-51
2022/02/28 12:43:24;;;;;;;17.88;4.28;;;26.10;31.00;;;;;;5064107;28;20467;-47
2022/02/28 12:45:55;;;;;;;20.30;4.32;;;26.10;31.00;;;;;;5042026;28;20525;-48
2022/02/28 12:48:23;;;;;;;15.27;3.60;;;26.20;30.90;;;;;;5041876;28;20055;-50
2022/02/28 12:50:53;;;;;;;21.98;4.97;;;26.30;30.90;;;;;;5042987;28;20049;-47
2022/02/28 12:53:21;;;;;;;13.80;2.85;;;26.30;30.80;;;;;;5042800;28;20059;-43
2022/02/28 12:55:57;;;;;;;13.05;2.08;;;26.40;30.70;;;;;;5042659;28;20052;-48
2022/02/28 12:58:25;;;;;;;12.30;2.95;;;26.50;30.70;;;;;;5042723;28;20052;-54